createdAt,value
2018-01-03T00:00:16.856Z,98222.30
2018-01-03T00:02:46.578Z,98213.99
2018-01-03T00:05:16.413Z,98214.96
2018-01-03T00:07:46.020Z,98211.08
2018-01-03T00:10:15.883Z,98217.66
2018-01-03T00:12:45.765Z,98209.17
2018-01-03T00:15:15.626Z,98203.26
2018-01-03T00:17:45.536Z,98195.06
2018-01-03T00:20:15.142Z,98195.85
2018-01-03T00:22:45.903Z,98196.36
2018-01-03T00:25:18.784Z,98178.55
2018-01-03T00:27:49.174Z,98172.05
2018-01-03T00:30:19.040Z,98162.92
2018-01-03T00:32:48.988Z,98156.55
2018-01-03T00:35:18.849Z,98150.39
2018-01-03T00:37:48.702Z,98144.81
2018-01-03T00:40:18.570Z,98130.56
2018-01-03T00:42:48.424Z,98129.60
2018-01-03T00:45:18.320Z,98126.76
2018-01-03T00:47:48.164Z,98121.50
2018-01-03T00:50:18.004Z,98095.77
2018-01-03T00:52:47.876Z,98114.42
2018-01-03T00:55:17.718Z,98118.80
2018-01-03T00:57:47.532Z,98119.89
2018-01-03T01:00:17.482Z,98113.28
2018-01-03T01:02:47.195Z,98105.02
2018-01-03T01:05:18.040Z,98110.17
2018-01-03T01:07:47.722Z,98103.26
2018-01-03T01:10:17.552Z,98105.36
2018-01-03T01:12:47.433Z,98107.67
2018-01-03T01:15:23.317Z,98105.50
2018-01-03T01:17:53.199Z,98100.87
2018-01-03T01:20:23.069Z,98087.09
2018-01-03T01:22:52.956Z,98083.50
2018-01-03T01:25:22.868Z,98087.44
2018-01-03T01:27:52.700Z,98081.68
2018-01-03T01:30:22.556Z,98081.94
2018-01-03T01:32:52.402Z,98073.98
2018-01-03T01:35:22.339Z,98067.38
2018-01-03T01:37:52.185Z,98059.19
2018-01-03T01:40:22.055Z,98054.41
2018-01-03T01:42:51.898Z,98045.86
2018-01-03T01:45:21.727Z,98042.78
2018-01-03T01:47:51.633Z,98023.73
2018-01-03T01:50:21.533Z,98024.20
2018-01-03T01:52:51.357Z,98008.62
2018-01-03T01:55:21.207Z,98003.80
2018-01-03T01:57:50.802Z,97994.35
2018-01-03T02:00:20.635Z,97993.38
2018-01-03T02:02:50.344Z,97991.11
2018-01-03T02:05:19.979Z,97982.22
2018-01-03T02:07:49.875Z,97970.80
2018-01-03T02:10:19.438Z,97956.48
2018-01-03T02:12:49.277Z,97956.17
2018-01-03T02:15:19.173Z,97955.62
2018-01-03T02:17:50.095Z,97939.42
2018-01-03T02:20:19.999Z,97929.88
2018-01-03T02:22:49.891Z,97926.02
2018-01-03T02:25:19.738Z,97922.73
2018-01-03T02:27:49.639Z,97919.97
2018-01-03T02:30:19.484Z,97922.87
2018-01-03T02:32:49.375Z,97910.22
2018-01-03T02:35:19.313Z,97908.98
2018-01-03T02:37:49.527Z,97899.19
2018-01-03T02:40:19.422Z,97894.80
2018-01-03T02:42:49.321Z,97891.14
2018-01-03T02:45:19.165Z,97885.22
2018-01-03T02:47:49.050Z,97878.11
2018-01-03T02:50:18.949Z,97873.83
2018-01-03T02:52:49.658Z,97868.52
2018-01-03T02:55:19.500Z,97871.30
2018-01-03T02:57:49.382Z,97866.91
2018-01-03T03:00:19.304Z,97863.03
2018-01-03T03:02:49.213Z,97858.46
2018-01-03T03:05:19.080Z,97851.94
2018-01-03T03:07:48.969Z,97850.12
2018-01-03T03:10:19.115Z,97836.51
2018-01-03T03:12:48.682Z,97836.56
2018-01-03T03:15:18.520Z,97827.92
2018-01-03T03:17:48.449Z,97813.89
2018-01-03T03:20:18.386Z,97818.72
2018-01-03T03:22:48.246Z,97797.25
2018-01-03T03:25:18.116Z,97792.27
2018-01-03T03:27:49.032Z,97782.92
2018-01-03T03:30:18.941Z,97779.27
2018-01-03T03:32:48.785Z,97768.47
2018-01-03T03:35:18.630Z,97758.84
2018-01-03T03:37:48.465Z,97760.16
2018-01-03T03:40:18.362Z,97755.08
2018-01-03T03:42:48.228Z,97748.55
2018-01-03T03:45:18.136Z,97736.13
2018-01-03T03:47:47.967Z,97720.86
2018-01-03T03:50:17.846Z,97724.30
2018-01-03T03:52:47.752Z,97728.38
2018-01-03T03:55:17.583Z,97730.71
2018-01-03T03:57:47.546Z,97725.91
2018-01-03T04:00:25.670Z,97715.53
2018-01-03T04:02:55.614Z,97707.16
2018-01-03T04:05:25.492Z,97707.37
2018-01-03T04:07:55.333Z,97706.74
2018-01-03T04:10:25.183Z,97697.56
2018-01-03T04:12:55.132Z,97702.56
2018-01-03T04:15:25.029Z,97693.80
2018-01-03T04:17:54.915Z,97695.39
2018-01-03T04:20:24.758Z,97690.11
2018-01-03T04:22:54.577Z,97689.05
2018-01-03T04:25:24.500Z,97681.77
2018-01-03T04:27:54.432Z,97689.34
2018-01-03T04:30:24.458Z,97695.75
2018-01-03T04:32:54.453Z,97683.33
2018-01-03T04:35:24.278Z,97667.63
2018-01-03T04:37:54.185Z,97659.80
2018-01-03T04:40:24.088Z,97649.17
2018-01-03T04:42:54.014Z,97644.06
2018-01-03T04:45:23.935Z,97641.49
2018-01-03T04:47:53.796Z,97633.84
2018-01-03T04:50:23.645Z,97633.21
2018-01-03T04:52:53.532Z,97623.78
2018-01-03T04:55:23.353Z,97636.08
2018-01-03T04:57:53.223Z,97639.34
2018-01-03T05:00:23.089Z,97639.33
2018-01-03T05:02:53.021Z,97636.44
2018-01-03T05:05:22.849Z,97628.02
2018-01-03T05:07:52.699Z,97614.75
2018-01-03T05:10:22.569Z,97604.47
2018-01-03T05:12:52.487Z,97607.78
2018-01-03T05:15:22.309Z,97604.98
2018-01-03T05:17:53.391Z,97598.28
2018-01-03T05:20:23.286Z,97561.15
2018-01-03T05:22:53.150Z,97532.11
2018-01-03T05:25:23.905Z,97518.52
2018-01-03T05:27:54.823Z,97521.03
2018-01-03T05:30:24.827Z,97506.54
2018-01-03T05:32:55.023Z,97485.64
2018-01-03T05:35:24.948Z,97478.65
2018-01-03T05:37:54.785Z,97484.76
2018-01-03T05:40:24.670Z,97482.12
2018-01-03T05:42:54.574Z,97469.46
2018-01-03T05:45:24.459Z,97467.77
2018-01-03T05:47:54.326Z,97452.20
2018-01-03T05:50:24.177Z,97416.07
2018-01-03T05:52:54.200Z,97417.67
2018-01-03T05:55:24.259Z,97418.38
2018-01-03T05:57:54.948Z,97408.77
2018-01-03T06:00:24.752Z,97405.55
2018-01-03T06:02:54.325Z,97398.05
2018-01-03T06:05:24.159Z,97391.91
2018-01-03T06:07:54.072Z,97374.59
2018-01-03T06:10:23.882Z,97372.69
2018-01-03T06:12:53.717Z,97327.92
2018-01-03T06:15:23.525Z,97333.23
2018-01-03T06:17:53.423Z,97344.66
2018-01-03T06:20:23.299Z,97352.36
2018-01-03T06:22:53.102Z,97327.06
2018-01-03T06:25:22.939Z,97326.30
2018-01-03T06:27:53.300Z,97327.19
2018-01-03T06:30:25.342Z,97278.84
2018-01-03T06:32:55.164Z,97240.97
2018-01-03T06:35:25.157Z,97274.03
2018-01-03T06:37:55.084Z,97272.47
2018-01-03T06:40:25.001Z,97220.64
2018-01-03T06:42:55.827Z,97213.84
2018-01-03T06:45:26.226Z,97188.33
2018-01-03T06:47:57.106Z,97194.28
2018-01-03T06:50:26.964Z,97169.91
2018-01-03T06:52:56.811Z,97158.95
2018-01-03T06:55:26.866Z,97153.98
2018-01-03T06:57:56.655Z,97151.03
2018-01-03T07:00:26.456Z,97128.17
2018-01-03T07:02:56.318Z,97116.84
2018-01-03T07:05:25.961Z,97113.48
2018-01-03T07:07:55.838Z,97088.41
2018-01-03T07:10:25.639Z,97074.52
2018-01-03T07:12:55.458Z,97078.88
2018-01-03T07:15:25.270Z,97067.66
2018-01-03T07:17:55.080Z,97042.25
2018-01-03T07:20:24.880Z,97007.83
2018-01-03T07:22:54.697Z,96999.16
2018-01-03T07:25:24.487Z,96985.43
2018-01-03T07:27:54.285Z,96978.86
2018-01-03T07:30:24.080Z,96955.52
2018-01-03T07:32:53.891Z,96948.55
2018-01-03T07:35:23.680Z,96929.39
2018-01-03T07:37:53.495Z,96903.95
2018-01-03T07:40:23.288Z,96880.78
2018-01-03T07:42:53.201Z,96871.69
2018-01-03T07:45:22.976Z,96867.20
2018-01-03T07:47:52.751Z,96854.39
2018-01-03T07:50:22.554Z,96850.62
2018-01-03T07:52:53.009Z,96853.79
2018-01-03T07:55:22.796Z,96844.61
2018-01-03T07:57:52.633Z,96851.11
2018-01-03T08:00:22.450Z,96840.57
2018-01-03T08:02:52.041Z,96839.92
2018-01-03T08:05:21.841Z,96838.91
2018-01-03T08:07:51.800Z,96827.39
2018-01-03T08:10:21.646Z,96778.45
2018-01-03T08:12:51.429Z,96764.44
2018-01-03T08:15:21.306Z,96754.53
2018-01-03T08:17:51.204Z,96735.81
2018-01-03T08:20:21.049Z,96725.78
2018-01-03T08:22:50.880Z,96715.45
2018-01-03T08:25:20.686Z,96731.53
2018-01-03T08:27:50.473Z,96706.47
2018-01-03T08:30:20.278Z,96702.86
2018-01-03T08:32:49.900Z,96697.56
2018-01-03T08:35:19.747Z,96676.38
2018-01-03T08:37:49.540Z,96678.50
2018-01-03T08:40:19.352Z,96651.73
2018-01-03T08:42:49.141Z,96644.98
2018-01-03T08:45:18.929Z,96649.96
2018-01-03T08:47:48.735Z,96621.48
2018-01-03T08:50:18.552Z,96599.19
2018-01-03T08:52:48.354Z,96602.52
2018-01-03T08:55:18.269Z,96586.30
2018-01-03T08:57:48.048Z,96567.16
2018-01-03T09:00:17.841Z,96578.98
2018-01-03T09:02:48.121Z,96593.48
2018-01-03T09:05:17.919Z,96598.85
2018-01-03T09:07:47.761Z,96604.47
2018-01-03T09:10:17.601Z,96603.75
2018-01-03T09:12:47.424Z,96591.91
2018-01-03T09:15:17.260Z,96580.80
2018-01-03T09:17:47.056Z,96591.55
2018-01-03T09:20:16.887Z,96588.02
2018-01-03T09:22:46.675Z,96567.76
2018-01-03T09:25:16.517Z,96544.34
2018-01-03T09:27:46.308Z,96527.56
2018-01-03T09:30:16.131Z,96509.56
2018-01-03T09:32:45.968Z,96506.05
2018-01-03T09:35:15.904Z,96486.64
2018-01-03T09:37:45.496Z,96479.27
2018-01-03T09:40:15.308Z,96466.52
2018-01-03T09:42:45.255Z,96449.08
2018-01-03T09:45:15.085Z,96449.15
2018-01-03T09:47:44.922Z,96439.77
2018-01-03T09:50:14.519Z,96427.70
2018-01-03T09:52:45.254Z,96424.40
2018-01-03T09:55:15.064Z,96408.65
2018-01-03T09:57:44.870Z,96402.49
2018-01-03T10:00:14.674Z,96380.32
2018-01-03T10:02:44.494Z,96392.94
2018-01-03T10:05:14.272Z,96377.83
2018-01-03T10:07:44.106Z,96339.59
2018-01-03T10:10:13.906Z,96338.30
2018-01-03T10:12:43.737Z,96317.34
2018-01-03T10:15:13.549Z,96314.58
2018-01-03T10:17:43.377Z,96322.06
2018-01-03T10:20:13.185Z,96314.40
2018-01-03T10:22:43.000Z,96294.76
2018-01-03T10:25:12.794Z,96291.31
2018-01-03T10:27:42.610Z,96307.56
2018-01-03T10:30:12.422Z,96355.44
2018-01-03T10:32:42.237Z,96350.70
2018-01-03T10:35:12.032Z,96375.34
2018-01-03T10:37:41.817Z,96395.80
2018-01-03T10:40:11.372Z,96380.20
2018-01-03T10:42:41.200Z,96359.90
2018-01-03T10:45:11.040Z,96359.05
2018-01-03T10:47:40.940Z,96355.28
2018-01-03T10:50:10.996Z,96363.98
2018-01-03T10:52:41.056Z,96361.32
2018-01-03T10:55:10.873Z,96360.13
2018-01-03T10:57:40.770Z,96358.30
2018-01-03T11:00:10.885Z,96354.97
2018-01-03T11:02:40.693Z,96386.60
2018-01-03T11:05:10.501Z,96384.49
2018-01-03T11:07:40.320Z,96403.84
2018-01-03T11:10:10.124Z,96406.62
2018-01-03T11:12:39.974Z,96438.92
2018-01-03T11:15:09.830Z,96469.78
2018-01-03T11:17:39.594Z,96462.19
2018-01-03T11:20:09.373Z,96450.58
2018-01-03T11:22:39.173Z,96437.09
2018-01-03T11:25:08.972Z,96436.43
2018-01-03T11:27:39.070Z,96458.44
2018-01-03T11:30:08.857Z,96499.66
2018-01-03T11:32:38.677Z,96549.09
2018-01-03T11:35:12.409Z,96569.72
2018-01-03T11:37:42.256Z,96574.90
2018-01-03T11:40:12.077Z,96578.09
2018-01-03T11:42:41.888Z,96606.98
2018-01-03T11:45:11.700Z,96659.24
2018-01-03T11:47:41.507Z,96688.97
2018-01-03T11:50:15.253Z,96722.83
2018-01-03T11:52:45.057Z,96738.59
2018-01-03T11:55:14.887Z,96714.19
2018-01-03T11:57:44.688Z,96708.09
2018-01-03T12:00:14.522Z,96693.14
2018-01-03T12:02:44.298Z,96691.57
2018-01-03T12:05:14.111Z,96662.48
2018-01-03T12:07:44.054Z,96668.83
2018-01-03T12:10:15.309Z,96675.12
2018-01-03T12:12:45.811Z,96680.34
2018-01-03T12:15:15.616Z,96693.72
2018-01-03T12:17:45.538Z,96720.67
2018-01-03T12:20:15.363Z,96740.81
2018-01-03T12:22:45.170Z,96736.69
2018-01-03T12:25:15.034Z,96727.62
2018-01-03T12:27:44.828Z,96703.34
2018-01-03T12:30:14.677Z,96655.72
2018-01-03T12:32:45.490Z,96705.77
2018-01-03T12:35:15.306Z,96733.70
2018-01-03T12:37:45.115Z,96749.30
2018-01-03T12:40:14.795Z,96767.94
2018-01-03T12:42:44.658Z,96793.01
2018-01-03T12:45:14.469Z,96817.76
2018-01-03T12:47:44.303Z,96814.81
2018-01-03T12:50:14.224Z,96813.39
2018-01-03T12:52:44.093Z,96825.97
2018-01-03T12:55:13.942Z,96831.20
2018-01-03T12:57:43.739Z,96843.53
2018-01-03T13:00:13.606Z,96858.46
2018-01-03T13:02:43.402Z,96852.31
2018-01-03T13:05:13.217Z,96842.64
2018-01-03T13:07:43.046Z,96836.16
2018-01-03T13:10:12.869Z,96849.36
2018-01-03T13:12:42.729Z,96858.75
2018-01-03T13:15:12.265Z,96855.46
2018-01-03T13:17:42.076Z,96850.30
2018-01-03T13:20:11.993Z,96853.47
2018-01-03T13:22:41.809Z,96869.78
2018-01-03T13:25:11.839Z,96893.80
2018-01-03T13:27:41.629Z,96909.82
2018-01-03T13:30:11.722Z,96947.78
2018-01-03T13:32:41.180Z,96944.50
2018-01-03T13:35:10.972Z,96928.87
2018-01-03T13:37:40.780Z,96969.23
2018-01-03T13:40:10.566Z,96980.16
2018-01-03T13:42:40.352Z,96980.80
2018-01-03T13:45:10.284Z,97009.89
2018-01-03T13:47:40.029Z,97016.37
2018-01-03T13:50:10.122Z,97010.50
2018-01-03T13:52:39.927Z,97023.76
2018-01-03T13:55:10.773Z,97016.97
2018-01-03T13:57:40.558Z,97032.77
2018-01-03T14:00:10.351Z,97031.30
2018-01-03T14:02:40.162Z,97011.27
2018-01-03T14:05:09.953Z,97001.14
2018-01-03T14:07:39.746Z,97018.33
2018-01-03T14:10:09.553Z,97031.00
2018-01-03T14:12:39.332Z,97043.83
2018-01-03T14:15:09.604Z,97036.29
2018-01-03T14:17:39.410Z,97029.84
2018-01-03T14:20:09.221Z,97034.25
2018-01-03T14:22:39.012Z,97049.48
2018-01-03T14:25:08.820Z,97038.20
2018-01-03T14:27:38.595Z,97040.95
2018-01-03T14:30:08.476Z,97046.33
2018-01-03T14:32:38.299Z,97043.71
2018-01-03T14:35:08.088Z,97048.02
2018-01-03T14:37:37.877Z,97045.59
2018-01-03T14:40:07.666Z,97042.09
2018-01-03T14:42:37.451Z,97040.57
2018-01-03T14:45:07.342Z,97078.97
2018-01-03T14:47:37.126Z,97079.69
2018-01-03T14:50:06.896Z,97090.88
2018-01-03T14:52:36.688Z,97148.94
2018-01-03T14:55:06.552Z,97136.79
2018-01-03T14:57:36.373Z,97135.64
2018-01-03T15:00:06.630Z,97141.32
2018-01-03T15:02:36.456Z,97172.95
2018-01-03T15:05:06.284Z,97157.50
2018-01-03T15:07:35.862Z,97158.41
2018-01-03T15:10:05.633Z,97167.15
2018-01-03T15:12:35.390Z,97172.87
2018-01-03T15:15:05.227Z,97180.67
2018-01-03T15:17:35.078Z,97183.34
2018-01-03T15:20:04.842Z,97195.59
2018-01-03T15:22:34.913Z,97155.50
2018-01-03T15:25:04.776Z,97160.08
2018-01-03T15:27:34.586Z,97157.63
2018-01-03T15:30:04.598Z,97152.32
2018-01-03T15:32:34.183Z,97149.95
2018-01-03T15:35:03.982Z,97162.38
2018-01-03T15:37:33.465Z,97195.03
2018-01-03T15:40:03.025Z,97199.53
2018-01-03T15:42:32.884Z,97204.09
2018-01-03T15:45:02.743Z,97206.23
2018-01-03T15:47:32.669Z,97218.97
2018-01-03T15:50:02.506Z,97216.37
2018-01-03T15:52:32.333Z,97227.20
2018-01-03T15:55:02.121Z,97224.83
2018-01-03T15:57:31.963Z,97240.32
2018-01-03T16:00:01.835Z,97240.41
2018-01-03T16:02:31.695Z,97244.92
2018-01-03T16:05:01.502Z,97249.16
2018-01-03T16:07:31.367Z,97240.52
2018-01-03T16:10:01.213Z,97242.98
2018-01-03T16:12:33.714Z,97242.98
2018-01-03T16:15:03.605Z,97234.19
2018-01-03T16:17:33.457Z,97225.25
2018-01-03T16:20:04.186Z,97233.93
2018-01-03T16:22:33.711Z,97225.58
2018-01-03T16:25:03.539Z,97235.38
2018-01-03T16:27:33.406Z,97236.75
2018-01-03T16:30:03.219Z,97239.50
2018-01-03T16:32:33.088Z,97238.19
2018-01-03T16:35:02.907Z,97244.94
2018-01-03T16:37:32.738Z,97236.23
2018-01-03T16:40:02.620Z,97235.36
2018-01-03T16:42:32.577Z,97229.50
2018-01-03T16:45:02.427Z,97224.98
2018-01-03T16:47:32.252Z,97238.48
2018-01-03T16:50:02.070Z,97245.05
2018-01-03T16:52:37.166Z,97241.73
2018-01-03T16:55:06.923Z,97238.16
2018-01-03T16:57:36.729Z,97247.81
2018-01-03T17:00:06.572Z,97229.93
2018-01-03T17:02:36.196Z,97237.40
2018-01-03T17:05:06.208Z,97234.48
2018-01-03T17:07:36.086Z,97243.98
2018-01-03T17:10:05.569Z,97235.40
2018-01-03T17:12:35.501Z,97255.61
2018-01-03T17:15:05.317Z,97269.91
2018-01-03T17:17:35.117Z,97260.09
2018-01-03T17:20:05.194Z,97254.03
2018-01-03T17:22:35.024Z,97251.16
2018-01-03T17:25:05.633Z,97261.36
2018-01-03T17:27:35.475Z,97256.91
2018-01-03T17:30:05.275Z,97235.77
2018-01-03T17:32:35.094Z,97239.95
2018-01-03T17:35:04.880Z,97226.55
2018-01-03T17:37:34.696Z,97215.42
2018-01-03T17:40:08.410Z,97216.00
2018-01-03T17:42:38.217Z,97215.12
2018-01-03T17:45:08.061Z,97210.72
2018-01-03T17:47:37.882Z,97206.80
2018-01-03T17:50:07.754Z,97208.22
2018-01-03T17:52:37.600Z,97207.12
2018-01-03T17:55:07.641Z,97202.63
2018-01-03T17:57:37.479Z,97186.42
2018-01-03T18:00:07.429Z,97187.11
2018-01-03T18:02:37.127Z,97178.17
2018-01-03T18:05:07.070Z,97170.77
2018-01-03T18:07:37.325Z,97177.36
2018-01-03T18:10:07.346Z,97179.67
2018-01-03T18:12:37.189Z,97171.89
2018-01-03T18:15:07.166Z,97171.78
2018-01-03T18:17:37.054Z,97173.70
2018-01-03T18:20:06.981Z,97174.70
2018-01-03T18:22:36.854Z,97162.22
2018-01-03T18:25:06.841Z,97155.59
2018-01-03T18:27:36.711Z,97159.80
2018-01-03T18:30:06.547Z,97165.44
2018-01-03T18:32:36.384Z,97161.89
2018-01-03T18:35:06.202Z,97150.45
2018-01-03T18:37:36.112Z,97152.30
2018-01-03T18:40:05.967Z,97155.43
2018-01-03T18:42:35.826Z,97132.52
2018-01-03T18:45:05.658Z,97147.86
2018-01-03T18:47:35.486Z,97145.43
2018-01-03T18:50:05.383Z,97143.85
2018-01-03T18:52:35.223Z,97137.70
2018-01-03T18:55:05.890Z,97142.00
2018-01-03T18:57:36.333Z,97142.56
2018-01-03T19:00:06.929Z,97144.34
2018-01-03T19:02:37.040Z,97142.13
2018-01-03T19:05:07.432Z,97153.36
2018-01-03T19:07:37.733Z,97151.81
2018-01-03T19:10:07.910Z,97148.08
2018-01-03T19:12:37.867Z,97154.84
2018-01-03T19:15:08.034Z,97152.28
2018-01-03T19:17:38.223Z,97157.80
2018-01-03T19:20:08.425Z,97162.18
2018-01-03T19:22:38.436Z,97160.97
2018-01-03T19:25:08.721Z,97164.45
2018-01-03T19:27:38.822Z,97162.24
2018-01-03T19:30:09.176Z,97170.00
2018-01-03T19:32:39.152Z,97170.28
2018-01-03T19:35:09.072Z,97178.19
2018-01-03T19:37:39.120Z,97179.77
2018-01-03T19:40:09.339Z,97176.25
2018-01-03T19:42:39.235Z,97172.08
2018-01-03T19:45:09.520Z,97168.44
2018-01-03T19:47:39.431Z,97175.13
2018-01-03T19:50:09.356Z,97171.80
2018-01-03T19:52:39.321Z,97174.32
2018-01-03T19:55:09.281Z,97172.61
2018-01-03T19:57:39.302Z,97176.47
2018-01-03T20:00:09.455Z,97173.64
2018-01-03T20:02:39.407Z,97174.72
2018-01-03T20:05:09.307Z,97169.46
2018-01-03T20:07:38.955Z,97174.69
2018-01-03T20:10:08.932Z,97162.36
2018-01-03T20:12:38.969Z,97165.97
2018-01-03T20:15:09.173Z,97167.31
2018-01-03T20:17:39.502Z,97181.50
2018-01-03T20:20:09.549Z,97164.91
2018-01-03T20:22:39.601Z,97169.86
2018-01-03T20:25:10.107Z,97175.06
2018-01-03T20:27:40.623Z,97174.00
2018-01-03T20:30:11.112Z,97180.70
2018-01-03T20:32:41.428Z,97180.70
2018-01-03T20:35:11.590Z,97183.53
2018-01-03T20:37:41.838Z,97176.84
2018-01-03T20:40:11.979Z,97190.63
2018-01-03T20:42:42.211Z,97186.58
2018-01-03T20:45:12.509Z,97172.50
2018-01-03T20:47:43.896Z,97176.39
2018-01-03T20:50:13.933Z,97191.12
2018-01-03T20:52:44.137Z,97194.64
2018-01-03T20:55:14.283Z,97190.47
2018-01-03T20:57:48.250Z,97193.30
2018-01-03T21:00:19.365Z,97198.13
2018-01-03T21:02:49.372Z,97201.91
2018-01-03T21:05:19.711Z,97205.52
2018-01-03T21:07:49.638Z,97202.84
2018-01-03T21:10:19.502Z,97195.62
2018-01-03T21:12:49.337Z,97203.48
2018-01-03T21:15:19.196Z,97190.63
2018-01-03T21:17:49.098Z,97194.52
2018-01-03T21:20:19.026Z,97206.97
2018-01-03T21:22:48.975Z,97204.70
2018-01-03T21:25:19.024Z,97206.48
2018-01-03T21:27:48.979Z,97215.25
2018-01-03T21:30:19.019Z,97219.83
2018-01-03T21:32:57.958Z,97211.72
2018-01-03T21:35:30.225Z,97213.99
2018-01-03T21:38:00.078Z,97221.09
2018-01-03T21:40:29.881Z,97220.72
2018-01-03T21:42:59.851Z,97221.13
2018-01-03T21:45:29.689Z,97211.59
2018-01-03T21:47:59.791Z,97227.86
2018-01-03T21:50:29.724Z,97227.36
2018-01-03T21:52:59.611Z,97231.66
2018-01-03T21:55:29.447Z,97242.78
2018-01-03T21:57:59.280Z,97249.32
2018-01-03T22:00:29.098Z,97226.39
2018-01-03T22:02:59.052Z,97224.49
2018-01-03T22:05:28.962Z,97219.95
2018-01-03T22:07:58.781Z,97229.97
2018-01-03T22:10:28.691Z,97230.82
2018-01-03T22:12:58.538Z,97232.16
2018-01-03T22:15:28.425Z,97233.38
2018-01-03T22:18:00.457Z,97237.11
2018-01-03T22:20:30.371Z,97243.16
2018-01-03T22:23:00.158Z,97251.84
2018-01-03T22:25:30.054Z,97241.69
2018-01-03T22:27:59.888Z,97246.27
2018-01-03T22:30:31.130Z,97243.56
2018-01-03T22:33:01.047Z,97255.90
2018-01-03T22:35:30.851Z,97252.72
2018-01-03T22:38:00.764Z,97275.94
2018-01-03T22:40:31.378Z,97255.56
2018-01-03T22:43:01.230Z,97275.61
2018-01-03T22:45:31.317Z,97255.61
2018-01-03T22:48:01.179Z,97276.14
2018-01-03T22:50:30.979Z,97271.35
2018-01-03T22:53:00.858Z,97275.74
2018-01-03T22:55:30.660Z,97276.64
2018-01-03T22:58:00.475Z,97285.03
2018-01-03T23:00:30.293Z,97280.29
2018-01-03T23:02:59.833Z,97292.24
2018-01-03T23:05:29.682Z,97296.42
2018-01-03T23:07:59.593Z,97296.17
2018-01-03T23:10:30.211Z,97287.45
2018-01-03T23:13:00.079Z,97287.57
2018-01-03T23:15:29.865Z,97287.62
2018-01-03T23:17:59.737Z,97297.41
2018-01-03T23:20:29.620Z,97279.34
2018-01-03T23:22:59.410Z,97289.66
2018-01-03T23:25:37.903Z,97284.75
2018-01-03T23:28:10.180Z,97293.55
2018-01-03T23:30:40.031Z,97295.71
2018-01-03T23:33:09.879Z,97284.92
2018-01-03T23:35:39.420Z,97291.89
2018-01-03T23:38:10.044Z,97286.25
2018-01-03T23:40:39.919Z,97301.16
2018-01-03T23:43:10.002Z,97294.73
2018-01-03T23:45:39.917Z,97295.42
2018-01-03T23:48:09.718Z,97286.86
2018-01-03T23:50:39.597Z,97297.98
2018-01-03T23:53:09.428Z,97294.09
2018-01-03T23:55:39.367Z,97297.05
2018-01-03T23:58:09.388Z,97307.80
